SBI6202 UHSS-UHWW
Flight info
| Callsign | SBI6202 |
|---|---|
| Flight time | 1h 48m |
| Altitude | 36000 |
| Route | DCT KENOM B919 TIMIT R810 TD B355 BG G714 DAGES DCT |
| Aircraft | B763/H-SADE2FGHIJ1RWXY/LB1 |
Departure
| Time | 2026-04-18 04:00 |
|---|---|
| Airport | Yuzhno-Sakhalinsk International Airport (UHSS) |
Arrival
| Time | 2026-04-18 05:49 |
|---|---|
| Airport | Vladivostok International Airport (UHWW) |
| Time | Latitude | Longitude | Altitude | Speed | Heading |
|---|---|---|---|---|---|
| 2026-04-18 03:34 | 46.88783 | 142.72227 | 71 ft | 0 kts | 90° |
| 2026-04-18 03:49 | 46.88783 | 142.72212 | 70 ft | 2 kts | 90° |
| 2026-04-18 03:49 | 46.88783 | 142.72191 | 70 ft | 2 kts | 90° |
| 2026-04-18 03:50 | 46.88783 | 142.72168 | 70 ft | 2 kts | 90° |
| 2026-04-18 03:50 | 46.88782 | 142.72147 | 70 ft | 2 kts | 83° |
| 2026-04-18 03:50 | 46.88778 | 142.72125 | 70 ft | 2 kts | 56° |
| 2026-04-18 03:50 | 46.88768 | 142.72110 | 70 ft | 2 kts | 34° |
| 2026-04-18 03:51 | 46.88754 | 142.72099 | 70 ft | 2 kts | 13° |
| 2026-04-18 03:51 | 46.88741 | 142.72098 | 70 ft | 0 kts | 359° |
| 2026-04-18 03:51 | 46.88740 | 142.72098 | 70 ft | 0 kts | 359° |
| 2026-04-18 03:51 | 46.88741 | 142.72098 | 70 ft | 0 kts | 359° |
| 2026-04-18 03:53 | 46.88750 | 142.72098 | 70 ft | 3 kts | 2° |
| 2026-04-18 03:54 | 46.88788 | 142.72101 | 70 ft | 6 kts | 2° |
| 2026-04-18 03:54 | 46.88842 | 142.72104 | 70 ft | 8 kts | 1° |
| 2026-04-18 03:54 | 46.88909 | 142.72105 | 70 ft | 10 kts | 1° |
| 2026-04-18 03:54 | 46.88979 | 142.72075 | 70 ft | 11 kts | 334° |
| 2026-04-18 03:55 | 46.89052 | 142.72012 | 70 ft | 12 kts | 322° |
| 2026-04-18 03:55 | 46.89090 | 142.71907 | 70 ft | 12 kts | 279° |
| 2026-04-18 03:55 | 46.89113 | 142.71782 | 70 ft | 13 kts | 321° |
| 2026-04-18 03:55 | 46.89205 | 142.71764 | 70 ft | 14 kts | 360° |
| 2026-04-18 03:56 | 46.89314 | 142.71764 | 70 ft | 16 kts | 1° |
| 2026-04-18 03:56 | 46.89424 | 142.71764 | 70 ft | 15 kts | 359° |
| 2026-04-18 03:56 | 46.89522 | 142.71765 | 70 ft | 13 kts | 1° |
| 2026-04-18 03:56 | 46.89624 | 142.71768 | 70 ft | 15 kts | 1° |
| 2026-04-18 03:57 | 46.89831 | 142.71773 | 70 ft | 13 kts | 1° |
| 2026-04-18 03:57 | 46.89931 | 142.71774 | 70 ft | 14 kts | 1° |
| 2026-04-18 03:57 | 46.90014 | 142.71825 | 70 ft | 12 kts | 33° |
| 2026-04-18 03:58 | 46.90067 | 142.71828 | 70 ft | 5 kts | 300° |
| 2026-04-18 03:58 | 46.90067 | 142.71788 | 70 ft | 3 kts | 239° |
| 2026-04-18 03:58 | 46.90055 | 142.71779 | 70 ft | 1 kts | 191° |
| 2026-04-18 03:58 | 46.90050 | 142.71777 | 70 ft | 0 kts | 181° |
| 2026-04-18 03:59 | 46.90025 | 142.71777 | 70 ft | 18 kts | 181° |
| 2026-04-18 03:59 | 46.89715 | 142.71770 | 70 ft | 70 kts | 181° |
| 2026-04-18 03:59 | 46.89086 | 142.71755 | 70 ft | 111 kts | 180° |
| 2026-04-18 04:00 | 46.88167 | 142.71735 | 72 ft | 151 kts | 181° |
| 2026-04-18 04:00 | 46.87072 | 142.71736 | 321 ft | 165 kts | 182° |
| 2026-04-18 04:00 | 46.85900 | 142.71629 | 795 ft | 165 kts | 196° |
| 2026-04-18 04:00 | 46.84971 | 142.70695 | 1198 ft | 173 kts | 231° |
| 2026-04-18 04:01 | 46.84309 | 142.69051 | 1323 ft | 203 kts | 243° |
| 2026-04-18 04:01 | 46.83815 | 142.66977 | 1560 ft | 231 kts | 255° |
| 2026-04-18 04:01 | 46.83559 | 142.64636 | 2280 ft | 237 kts | 262° |
| 2026-04-18 04:01 | 46.83433 | 142.62236 | 3056 ft | 241 kts | 265° |
| 2026-04-18 04:02 | 46.83383 | 142.59778 | 3847 ft | 243 kts | 267° |
| 2026-04-18 04:02 | 46.83375 | 142.57335 | 4619 ft | 245 kts | 268° |
| 2026-04-18 04:02 | 46.83390 | 142.54828 | 5394 ft | 248 kts | 269° |
| 2026-04-18 04:02 | 46.83416 | 142.52331 | 6131 ft | 250 kts | 269° |
| 2026-04-18 04:03 | 46.83448 | 142.49704 | 6617 ft | 264 kts | 269° |
| 2026-04-18 04:03 | 46.83486 | 142.47058 | 7409 ft | 264 kts | 269° |
| 2026-04-18 04:03 | 46.83522 | 142.44357 | 8195 ft | 265 kts | 269° |
| 2026-04-18 04:03 | 46.83557 | 142.41672 | 8950 ft | 266 kts | 269° |
| 2026-04-18 04:04 | 46.83591 | 142.38997 | 9690 ft | 268 kts | 270° |
| 2026-04-18 04:04 | 46.83626 | 142.36258 | 10347 ft | 273 kts | 270° |
| 2026-04-18 04:04 | 46.83660 | 142.33377 | 10378 ft | 302 kts | 269° |
| 2026-04-18 04:04 | 46.83699 | 142.30150 | 10423 ft | 331 kts | 269° |
| 2026-04-18 04:05 | 46.83741 | 142.26659 | 10829 ft | 348 kts | 270° |
| 2026-04-18 04:05 | 46.83783 | 142.23119 | 11641 ft | 352 kts | 270° |
| 2026-04-18 04:05 | 46.83823 | 142.19542 | 12473 ft | 355 kts | 270° |
| 2026-04-18 04:05 | 46.83864 | 142.15930 | 13287 ft | 359 kts | 270° |
| 2026-04-18 04:06 | 46.83904 | 142.12279 | 14090 ft | 362 kts | 270° |
| 2026-04-18 04:06 | 46.83941 | 142.08641 | 14865 ft | 365 kts | 270° |
| 2026-04-18 04:06 | 46.83979 | 142.04916 | 15628 ft | 368 kts | 270° |
| 2026-04-18 04:06 | 46.84014 | 142.01176 | 16378 ft | 371 kts | 270° |
| 2026-04-18 04:07 | 46.84050 | 141.97435 | 17097 ft | 374 kts | 270° |
| 2026-04-18 04:07 | 46.84084 | 141.93600 | 17813 ft | 377 kts | 270° |
| 2026-04-18 04:07 | 46.84117 | 141.89786 | 18514 ft | 380 kts | 270° |
| 2026-04-18 04:07 | 46.84150 | 141.85889 | 19195 ft | 384 kts | 270° |
| 2026-04-18 04:08 | 46.84181 | 141.82050 | 19856 ft | 387 kts | 269° |
| 2026-04-18 04:08 | 46.84063 | 141.78076 | 20526 ft | 389 kts | 265° |
| 2026-04-18 04:08 | 46.83850 | 141.74155 | 21186 ft | 392 kts | 265° |
| 2026-04-18 04:08 | 46.83635 | 141.70198 | 21822 ft | 395 kts | 265° |
| 2026-04-18 04:09 | 46.83412 | 141.66161 | 22447 ft | 398 kts | 265° |
| 2026-04-18 04:09 | 46.83187 | 141.62131 | 23066 ft | 401 kts | 265° |
| 2026-04-18 04:09 | 46.82961 | 141.58109 | 23657 ft | 404 kts | 265° |
| 2026-04-18 04:09 | 46.82727 | 141.53981 | 24263 ft | 407 kts | 265° |
| 2026-04-18 04:10 | 46.82494 | 141.49895 | 24837 ft | 410 kts | 264° |
| 2026-04-18 04:10 | 46.82254 | 141.45695 | 25399 ft | 413 kts | 264° |
| 2026-04-18 04:10 | 46.82012 | 141.41527 | 25958 ft | 416 kts | 264° |
| 2026-04-18 04:10 | 46.81770 | 141.37341 | 26525 ft | 418 kts | 264° |
| 2026-04-18 04:11 | 46.81521 | 141.33107 | 27048 ft | 422 kts | 264° |
| 2026-04-18 04:11 | 46.81268 | 141.28819 | 27609 ft | 424 kts | 264° |
| 2026-04-18 04:11 | 46.81014 | 141.24519 | 28125 ft | 428 kts | 264° |
| 2026-04-18 04:11 | 46.80755 | 141.20192 | 28658 ft | 430 kts | 264° |
| 2026-04-18 04:12 | 46.80495 | 141.15858 | 29133 ft | 434 kts | 264° |
| 2026-04-18 04:12 | 46.80228 | 141.11436 | 29669 ft | 436 kts | 264° |
| 2026-04-18 04:12 | 46.79961 | 141.07054 | 30132 ft | 439 kts | 264° |
| 2026-04-18 04:12 | 46.79689 | 141.02609 | 30592 ft | 442 kts | 264° |
| 2026-04-18 04:13 | 46.79414 | 140.98146 | 31174 ft | 442 kts | 264° |
| 2026-04-18 04:13 | 46.79138 | 140.93694 | 31766 ft | 440 kts | 264° |
| 2026-04-18 04:13 | 46.78865 | 140.89319 | 32381 ft | 437 kts | 264° |
| 2026-04-18 04:13 | 46.78588 | 140.84892 | 32885 ft | 436 kts | 264° |
| 2026-04-18 04:14 | 46.78310 | 140.80507 | 33391 ft | 434 kts | 264° |
| 2026-04-18 04:14 | 46.78037 | 140.76181 | 33866 ft | 432 kts | 264° |
| 2026-04-18 04:14 | 46.77755 | 140.71790 | 34308 ft | 430 kts | 264° |
| 2026-04-18 04:14 | 46.77477 | 140.67477 | 34691 ft | 429 kts | 264° |
| 2026-04-18 04:15 | 46.77198 | 140.63167 | 35065 ft | 427 kts | 264° |
| 2026-04-18 04:15 | 46.76920 | 140.58897 | 35373 ft | 427 kts | 263° |
| 2026-04-18 04:15 | 46.76636 | 140.54553 | 35683 ft | 426 kts | 264° |
| 2026-04-18 04:15 | 46.76355 | 140.50284 | 35997 ft | 425 kts | 264° |
| 2026-04-18 04:16 | 46.76072 | 140.46025 | 36058 ft | 426 kts | 264° |
| 2026-04-18 04:16 | 46.75500 | 140.37466 | 36057 ft | 424 kts | 264° |
| 2026-04-18 04:17 | 46.74923 | 140.28909 | 36064 ft | 424 kts | 263° |
| 2026-04-18 04:17 | 46.74339 | 140.20367 | 36067 ft | 423 kts | 263° |
| 2026-04-18 04:18 | 46.73746 | 140.11873 | 36035 ft | 424 kts | 263° |
| 2026-04-18 04:18 | 46.73426 | 140.07608 | 35732 ft | 426 kts | 263° |
| 2026-04-18 04:18 | 46.73103 | 140.03311 | 35753 ft | 421 kts | 263° |
| 2026-04-18 04:19 | 46.72484 | 139.94844 | 35753 ft | 424 kts | 263° |
| 2026-04-18 04:19 | 46.71867 | 139.86293 | 35748 ft | 424 kts | 263° |
| 2026-04-18 04:20 | 46.71248 | 139.77794 | 35749 ft | 424 kts | 263° |
| 2026-04-18 04:20 | 46.70617 | 139.69231 | 35750 ft | 424 kts | 263° |
| 2026-04-18 04:21 | 46.69986 | 139.60748 | 35749 ft | 424 kts | 263° |
| 2026-04-18 04:21 | 46.69343 | 139.52187 | 35747 ft | 424 kts | 263° |
| 2026-04-18 04:22 | 46.68695 | 139.43661 | 35747 ft | 424 kts | 263° |
| 2026-04-18 04:22 | 46.68046 | 139.35161 | 35746 ft | 424 kts | 263° |
| 2026-04-18 04:23 | 46.67399 | 139.26643 | 35752 ft | 424 kts | 262° |
| 2026-04-18 04:23 | 46.66748 | 139.18169 | 35750 ft | 423 kts | 262° |
| 2026-04-18 04:24 | 46.66090 | 139.09677 | 35752 ft | 424 kts | 263° |
| 2026-04-18 04:24 | 46.65422 | 139.01157 | 35749 ft | 425 kts | 263° |
| 2026-04-18 04:25 | 46.64747 | 138.92619 | 35744 ft | 425 kts | 263° |
| 2026-04-18 04:25 | 46.64066 | 138.84091 | 35751 ft | 426 kts | 263° |
| 2026-04-18 04:26 | 46.63377 | 138.75528 | 35749 ft | 424 kts | 263° |
| 2026-04-18 04:26 | 46.62678 | 138.67000 | 35744 ft | 425 kts | 262° |
| 2026-04-18 04:27 | 46.61356 | 138.58650 | 35750 ft | 425 kts | 256° |
| 2026-04-18 04:27 | 46.59905 | 138.50403 | 35748 ft | 424 kts | 256° |
| 2026-04-18 04:28 | 46.58425 | 138.42104 | 35742 ft | 424 kts | 256° |
| 2026-04-18 04:28 | 46.56939 | 138.33835 | 35747 ft | 425 kts | 255° |
| 2026-04-18 04:29 | 46.55435 | 138.25502 | 35752 ft | 425 kts | 255° |
| 2026-04-18 04:29 | 46.53938 | 138.17253 | 35753 ft | 424 kts | 255° |
| 2026-04-18 04:30 | 46.52433 | 138.08997 | 35748 ft | 425 kts | 255° |
| 2026-04-18 04:30 | 46.50906 | 138.00694 | 35750 ft | 424 kts | 255° |
| 2026-04-18 04:31 | 46.49379 | 137.92447 | 35749 ft | 425 kts | 255° |
| 2026-04-18 04:31 | 46.47845 | 137.84192 | 35747 ft | 424 kts | 255° |
| 2026-04-18 04:32 | 46.46305 | 137.75943 | 35751 ft | 425 kts | 255° |
| 2026-04-18 04:32 | 46.44753 | 137.67671 | 35744 ft | 425 kts | 255° |
| 2026-04-18 04:33 | 46.43193 | 137.59389 | 35744 ft | 425 kts | 255° |
| 2026-04-18 04:33 | 46.41639 | 137.51175 | 35743 ft | 425 kts | 255° |
| 2026-04-18 04:34 | 46.40077 | 137.42955 | 35742 ft | 425 kts | 255° |
| 2026-04-18 04:34 | 46.38499 | 137.34686 | 35744 ft | 425 kts | 255° |
| 2026-04-18 04:35 | 46.36926 | 137.26482 | 35753 ft | 425 kts | 255° |
| 2026-04-18 04:35 | 46.35350 | 137.18263 | 35750 ft | 425 kts | 255° |
| 2026-04-18 04:36 | 46.33763 | 137.10011 | 35753 ft | 425 kts | 255° |
| 2026-04-18 04:36 | 46.32182 | 137.01823 | 35751 ft | 424 kts | 255° |
| 2026-04-18 04:37 | 46.30587 | 136.93605 | 35748 ft | 424 kts | 255° |
| 2026-04-18 04:37 | 46.28991 | 136.85411 | 35748 ft | 423 kts | 255° |
| 2026-04-18 04:38 | 46.27392 | 136.77240 | 35747 ft | 423 kts | 255° |
| 2026-04-18 04:38 | 46.25794 | 136.69106 | 35747 ft | 423 kts | 255° |
| 2026-04-18 04:39 | 46.24166 | 136.60954 | 35742 ft | 423 kts | 255° |
| 2026-04-18 04:39 | 46.22538 | 136.52830 | 35745 ft | 423 kts | 255° |
| 2026-04-18 04:40 | 46.20902 | 136.44704 | 35741 ft | 423 kts | 255° |
| 2026-04-18 04:40 | 46.19259 | 136.36574 | 35741 ft | 423 kts | 255° |
| 2026-04-18 04:41 | 46.17603 | 136.28415 | 35750 ft | 423 kts | 254° |
| 2026-04-18 04:41 | 46.15940 | 136.20258 | 35750 ft | 423 kts | 254° |
| 2026-04-18 04:42 | 46.14278 | 136.12134 | 35750 ft | 423 kts | 254° |
| 2026-04-18 04:42 | 46.12621 | 136.04069 | 35748 ft | 423 kts | 255° |
| 2026-04-18 04:43 | 46.10938 | 135.95908 | 35747 ft | 423 kts | 254° |
| 2026-04-18 04:43 | 46.09264 | 135.87828 | 35747 ft | 423 kts | 254° |
| 2026-04-18 04:44 | 46.07592 | 135.79739 | 35748 ft | 423 kts | 255° |
| 2026-04-18 04:44 | 46.06085 | 135.71544 | 35746 ft | 422 kts | 256° |
| 2026-04-18 04:45 | 46.04582 | 135.63397 | 35748 ft | 423 kts | 256° |
| 2026-04-18 04:45 | 46.03073 | 135.55255 | 35745 ft | 423 kts | 256° |
| 2026-04-18 04:46 | 46.01548 | 135.47064 | 35744 ft | 423 kts | 256° |
| 2026-04-18 04:46 | 46.00033 | 135.38963 | 35745 ft | 422 kts | 256° |
| 2026-04-18 04:47 | 45.98502 | 135.30815 | 35753 ft | 423 kts | 255° |
| 2026-04-18 04:47 | 45.96956 | 135.22618 | 35751 ft | 423 kts | 255° |
| 2026-04-18 04:48 | 45.95420 | 135.14513 | 35751 ft | 423 kts | 255° |
| 2026-04-18 04:48 | 45.93864 | 135.06339 | 35757 ft | 423 kts | 256° |
| 2026-04-18 04:49 | 45.92310 | 134.98204 | 35777 ft | 422 kts | 256° |
| 2026-04-18 04:49 | 45.90149 | 134.90433 | 35780 ft | 427 kts | 241° |
| 2026-04-18 04:50 | 45.86188 | 134.84016 | 35778 ft | 438 kts | 223° |
| 2026-04-18 04:50 | 45.81019 | 134.79356 | 35777 ft | 444 kts | 215° |
| 2026-04-18 04:51 | 45.75639 | 134.74937 | 35773 ft | 443 kts | 215° |
| 2026-04-18 04:51 | 45.70312 | 134.70621 | 35776 ft | 444 kts | 215° |
| 2026-04-18 04:52 | 45.64958 | 134.66307 | 35772 ft | 444 kts | 215° |
| 2026-04-18 04:52 | 45.59557 | 134.61966 | 35775 ft | 444 kts | 215° |
| 2026-04-18 04:53 | 45.54211 | 134.57683 | 35788 ft | 444 kts | 214° |
| 2026-04-18 04:53 | 45.48810 | 134.53363 | 35819 ft | 444 kts | 214° |
| 2026-04-18 04:54 | 45.43449 | 134.49086 | 35870 ft | 444 kts | 214° |
| 2026-04-18 04:54 | 45.38075 | 134.44807 | 35929 ft | 444 kts | 214° |
| 2026-04-18 04:55 | 45.32705 | 134.40541 | 35957 ft | 444 kts | 215° |
| 2026-04-18 04:55 | 45.27311 | 134.36267 | 35961 ft | 443 kts | 214° |
| 2026-04-18 04:56 | 45.19260 | 134.29903 | 35967 ft | 445 kts | 214° |
| 2026-04-18 04:56 | 45.13834 | 134.25626 | 35969 ft | 444 kts | 214° |
| 2026-04-18 04:57 | 45.08458 | 134.21397 | 35965 ft | 443 kts | 214° |
| 2026-04-18 04:57 | 45.03384 | 134.16707 | 35974 ft | 433 kts | 223° |
| 2026-04-18 04:58 | 44.98617 | 134.11612 | 35967 ft | 431 kts | 222° |
| 2026-04-18 04:58 | 44.93800 | 134.06630 | 35965 ft | 430 kts | 222° |
| 2026-04-18 04:59 | 44.89047 | 134.01767 | 35968 ft | 431 kts | 222° |
| 2026-04-18 05:00 | 44.75912 | 133.88426 | 35965 ft | 432 kts | 222° |
| 2026-04-18 05:01 | 44.72724 | 133.85208 | 35876 ft | 417 kts | 222° |
| 2026-04-18 05:01 | 44.71170 | 133.83637 | 35552 ft | 417 kts | 222° |
| 2026-04-18 05:01 | 44.68837 | 133.81280 | 35070 ft | 412 kts | 222° |
| 2026-04-18 05:01 | 44.65770 | 133.78189 | 34433 ft | 407 kts | 222° |
| 2026-04-18 05:02 | 44.64222 | 133.76625 | 34116 ft | 409 kts | 222° |
| 2026-04-18 05:02 | 44.61919 | 133.74304 | 33639 ft | 411 kts | 222° |
| 2026-04-18 05:02 | 44.59605 | 133.71976 | 33159 ft | 413 kts | 222° |
| 2026-04-18 05:02 | 44.57258 | 133.69617 | 32677 ft | 416 kts | 222° |
| 2026-04-18 05:03 | 44.54904 | 133.67255 | 32193 ft | 417 kts | 222° |
| 2026-04-18 05:03 | 44.52578 | 133.64923 | 31713 ft | 419 kts | 222° |
| 2026-04-18 05:03 | 44.50216 | 133.62556 | 31229 ft | 420 kts | 221° |
| 2026-04-18 05:03 | 44.47816 | 133.60156 | 30740 ft | 422 kts | 221° |
| 2026-04-18 05:04 | 44.45432 | 133.57773 | 30261 ft | 424 kts | 221° |
| 2026-04-18 05:04 | 44.43034 | 133.55379 | 29780 ft | 427 kts | 221° |
| 2026-04-18 05:04 | 44.40624 | 133.52977 | 29293 ft | 424 kts | 221° |
| 2026-04-18 05:04 | 44.38241 | 133.50604 | 28810 ft | 421 kts | 221° |
| 2026-04-18 05:05 | 44.35937 | 133.48312 | 28348 ft | 419 kts | 221° |
| 2026-04-18 05:05 | 44.33579 | 133.45966 | 27875 ft | 416 kts | 221° |
| 2026-04-18 05:05 | 44.31214 | 133.43617 | 27404 ft | 415 kts | 221° |
| 2026-04-18 05:05 | 44.28097 | 133.40524 | 26785 ft | 412 kts | 221° |
| 2026-04-18 05:06 | 44.25784 | 133.38232 | 26328 ft | 409 kts | 221° |
| 2026-04-18 05:06 | 44.24271 | 133.36734 | 26029 ft | 407 kts | 221° |
| 2026-04-18 05:06 | 44.21948 | 133.34435 | 25575 ft | 405 kts | 220° |
| 2026-04-18 05:06 | 44.18920 | 133.31442 | 25001 ft | 403 kts | 220° |
| 2026-04-18 05:07 | 44.17401 | 133.29944 | 24712 ft | 402 kts | 220° |
| 2026-04-18 05:07 | 44.15112 | 133.27686 | 24277 ft | 400 kts | 220° |
| 2026-04-18 05:07 | 44.12125 | 133.24741 | 23707 ft | 396 kts | 220° |
| 2026-04-18 05:07 | 44.10617 | 133.23256 | 23419 ft | 395 kts | 220° |
| 2026-04-18 05:08 | 44.08397 | 133.21072 | 22996 ft | 393 kts | 220° |
| 2026-04-18 05:08 | 44.06157 | 133.18870 | 22569 ft | 391 kts | 220° |
| 2026-04-18 05:08 | 44.03235 | 133.16003 | 22011 ft | 389 kts | 220° |
| 2026-04-18 05:08 | 44.01762 | 133.14557 | 21730 ft | 388 kts | 220° |
| 2026-04-18 05:09 | 43.99561 | 133.12401 | 21310 ft | 387 kts | 220° |
| 2026-04-18 05:09 | 43.96651 | 133.09551 | 20755 ft | 384 kts | 220° |
| 2026-04-18 05:09 | 43.95187 | 133.08119 | 20476 ft | 383 kts | 220° |
| 2026-04-18 05:09 | 43.93028 | 133.06009 | 20064 ft | 382 kts | 220° |
| 2026-04-18 05:10 | 43.90863 | 133.03896 | 19652 ft | 380 kts | 220° |
| 2026-04-18 05:10 | 43.88689 | 133.01773 | 19235 ft | 379 kts | 220° |
| 2026-04-18 05:10 | 43.86551 | 132.99690 | 18825 ft | 378 kts | 220° |
| 2026-04-18 05:10 | 43.84411 | 132.97606 | 18414 ft | 376 kts | 220° |
| 2026-04-18 05:11 | 43.81560 | 132.94832 | 17870 ft | 374 kts | 220° |
| 2026-04-18 05:11 | 43.79449 | 132.92780 | 17468 ft | 372 kts | 219° |
| 2026-04-18 05:11 | 43.78033 | 132.91405 | 17198 ft | 371 kts | 219° |
| 2026-04-18 05:11 | 43.75237 | 132.88692 | 16668 ft | 369 kts | 219° |
| 2026-04-18 05:12 | 43.73844 | 132.87341 | 16404 ft | 368 kts | 219° |
| 2026-04-18 05:12 | 43.71735 | 132.85298 | 16027 ft | 365 kts | 219° |
| 2026-04-18 05:12 | 43.69683 | 132.83311 | 15876 ft | 363 kts | 219° |
| 2026-04-18 05:12 | 43.67610 | 132.81306 | 15882 ft | 364 kts | 219° |
| 2026-04-18 05:13 | 43.64972 | 132.78496 | 15862 ft | 347 kts | 231° |
| 2026-04-18 05:13 | 43.64014 | 132.76750 | 15871 ft | 330 kts | 244° |
| 2026-04-18 05:13 | 43.63190 | 132.73940 | 15874 ft | 308 kts | 260° |
| 2026-04-18 05:13 | 43.63011 | 132.71010 | 15884 ft | 302 kts | 276° |
| 2026-04-18 05:14 | 43.63702 | 132.67307 | 15886 ft | 302 kts | 296° |
| 2026-04-18 05:14 | 43.64424 | 132.65634 | 15885 ft | 302 kts | 306° |
| 2026-04-18 05:14 | 43.66482 | 132.63008 | 15885 ft | 306 kts | 326° |
| 2026-04-18 05:14 | 43.68418 | 132.61839 | 15885 ft | 311 kts | 341° |
| 2026-04-18 05:15 | 43.69875 | 132.61496 | 15885 ft | 316 kts | 352° |
| 2026-04-18 05:15 | 43.72795 | 132.62024 | 15886 ft | 327 kts | 15° |
| 2026-04-18 05:15 | 43.74165 | 132.62894 | 15887 ft | 333 kts | 27° |
| 2026-04-18 05:15 | 43.76032 | 132.64856 | 15892 ft | 337 kts | 35° |
| 2026-04-18 05:16 | 43.77862 | 132.66847 | 15878 ft | 336 kts | 32° |
| 2026-04-18 05:16 | 43.79733 | 132.68756 | 15878 ft | 335 kts | 31° |
| 2026-04-18 05:16 | 43.81625 | 132.70647 | 15879 ft | 335 kts | 31° |
| 2026-04-18 05:16 | 43.83514 | 132.72514 | 15879 ft | 335 kts | 31° |
| 2026-04-18 05:17 | 43.86041 | 132.75001 | 15879 ft | 335 kts | 31° |
| 2026-04-18 05:17 | 43.87307 | 132.76245 | 15879 ft | 335 kts | 31° |
| 2026-04-18 05:17 | 43.89825 | 132.78720 | 15879 ft | 335 kts | 31° |
| 2026-04-18 05:17 | 43.91076 | 132.79948 | 15879 ft | 335 kts | 31° |
| 2026-04-18 05:18 | 43.92978 | 132.81819 | 15879 ft | 335 kts | 31° |
| 2026-04-18 05:18 | 43.95499 | 132.84300 | 15879 ft | 335 kts | 31° |
| 2026-04-18 05:18 | 43.96768 | 132.85584 | 15877 ft | 336 kts | 34° |
| 2026-04-18 05:18 | 43.98751 | 132.88930 | 15889 ft | 347 kts | 60° |
| 2026-04-18 05:19 | 43.99337 | 132.91028 | 15863 ft | 352 kts | 73° |
| 2026-04-18 05:19 | 43.99565 | 132.94417 | 15815 ft | 353 kts | 94° |
| 2026-04-18 05:19 | 43.98594 | 132.98744 | 15824 ft | 356 kts | 122° |
| 2026-04-18 05:19 | 43.97633 | 133.00546 | 15823 ft | 354 kts | 135° |
| 2026-04-18 05:20 | 43.95682 | 133.02614 | 15822 ft | 348 kts | 156° |
| 2026-04-18 05:20 | 43.92651 | 133.03748 | 15822 ft | 337 kts | 182° |
| 2026-04-18 05:20 | 43.90379 | 133.03386 | 15820 ft | 329 kts | 201° |
| 2026-04-18 05:20 | 43.88326 | 133.02081 | 15820 ft | 321 kts | 218° |
| 2026-04-18 05:21 | 43.86577 | 133.00258 | 15818 ft | 319 kts | 222° |
| 2026-04-18 05:21 | 43.85395 | 132.99025 | 15809 ft | 320 kts | 221° |
| 2026-04-18 05:21 | 43.83593 | 132.97197 | 15810 ft | 320 kts | 220° |
| 2026-04-18 05:21 | 43.81789 | 132.95386 | 15810 ft | 321 kts | 220° |
| 2026-04-18 05:22 | 43.79970 | 132.93573 | 15810 ft | 321 kts | 220° |
| 2026-04-18 05:22 | 43.78177 | 132.91791 | 15809 ft | 320 kts | 220° |
| 2026-04-18 05:22 | 43.75766 | 132.89401 | 15810 ft | 321 kts | 220° |
| 2026-04-18 05:22 | 43.74542 | 132.88190 | 15810 ft | 321 kts | 220° |
| 2026-04-18 05:23 | 43.72127 | 132.85802 | 15809 ft | 321 kts | 220° |
| 2026-04-18 05:23 | 43.70332 | 132.84027 | 15809 ft | 321 kts | 220° |
| 2026-04-18 05:23 | 43.68511 | 132.82231 | 15809 ft | 321 kts | 220° |
| 2026-04-18 05:23 | 43.67318 | 132.81053 | 15810 ft | 321 kts | 220° |
| 2026-04-18 05:24 | 43.65549 | 132.79163 | 15802 ft | 316 kts | 230° |
| 2026-04-18 05:24 | 43.64353 | 132.76733 | 15822 ft | 307 kts | 251° |
| 2026-04-18 05:24 | 43.63914 | 132.72893 | 15821 ft | 302 kts | 278° |
| 2026-04-18 05:24 | 43.64207 | 132.71048 | 15819 ft | 300 kts | 290° |
| 2026-04-18 05:25 | 43.65724 | 132.67859 | 15819 ft | 302 kts | 316° |
| 2026-04-18 05:25 | 43.67507 | 132.66310 | 15819 ft | 308 kts | 336° |
| 2026-04-18 05:25 | 43.68892 | 132.65816 | 15819 ft | 313 kts | 349° |
| 2026-04-18 05:25 | 43.71808 | 132.66338 | 15821 ft | 327 kts | 18° |
| 2026-04-18 05:26 | 43.73126 | 132.67366 | 15824 ft | 333 kts | 32° |
| 2026-04-18 05:26 | 43.74945 | 132.69389 | 15817 ft | 336 kts | 34° |
| 2026-04-18 05:26 | 43.77408 | 132.71962 | 15808 ft | 333 kts | 31° |
| 2026-04-18 05:26 | 43.79276 | 132.73836 | 15809 ft | 333 kts | 31° |
| 2026-04-18 05:27 | 43.80545 | 132.75095 | 15809 ft | 334 kts | 31° |
| 2026-04-18 05:27 | 43.82422 | 132.76947 | 15808 ft | 333 kts | 31° |
| 2026-04-18 05:27 | 43.84921 | 132.79405 | 15809 ft | 333 kts | 31° |
| 2026-04-18 05:27 | 43.86201 | 132.80662 | 15809 ft | 333 kts | 31° |
| 2026-04-18 05:28 | 43.88064 | 132.82494 | 15809 ft | 333 kts | 31° |
| 2026-04-18 05:28 | 43.89973 | 132.84369 | 15809 ft | 333 kts | 31° |
| 2026-04-18 05:28 | 43.92470 | 132.86826 | 15809 ft | 333 kts | 31° |
| 2026-04-18 05:28 | 43.93736 | 132.88072 | 15809 ft | 333 kts | 31° |
| 2026-04-18 05:29 | 43.95537 | 132.90076 | 15801 ft | 338 kts | 44° |
| 2026-04-18 05:29 | 43.96752 | 132.92888 | 15826 ft | 348 kts | 69° |
| 2026-04-18 05:29 | 43.97049 | 132.96236 | 15829 ft | 355 kts | 95° |
| 2026-04-18 05:29 | 43.95834 | 133.00433 | 15831 ft | 354 kts | 131° |
| 2026-04-18 05:30 | 43.93966 | 133.02534 | 15832 ft | 348 kts | 158° |
| 2026-04-18 05:30 | 43.91646 | 133.03479 | 15862 ft | 353 kts | 177° |
| 2026-04-18 05:30 | 43.89156 | 133.03435 | 15824 ft | 365 kts | 193° |
| 2026-04-18 05:30 | 43.86717 | 133.02406 | 15768 ft | 368 kts | 209° |
| 2026-04-18 05:31 | 43.85275 | 133.01251 | 15718 ft | 362 kts | 219° |
| 2026-04-18 05:31 | 43.82987 | 132.97948 | 15616 ft | 353 kts | 241° |
| 2026-04-18 05:31 | 43.82248 | 132.95973 | 15569 ft | 350 kts | 251° |
| 2026-04-18 05:31 | 43.81396 | 132.92806 | 15499 ft | 349 kts | 252° |
| 2026-04-18 05:32 | 43.80517 | 132.89688 | 15415 ft | 350 kts | 248° |
| 2026-04-18 05:32 | 43.79234 | 132.86812 | 15321 ft | 354 kts | 236° |
| 2026-04-18 05:32 | 43.77599 | 132.84262 | 15204 ft | 357 kts | 229° |
| 2026-04-18 05:32 | 43.75806 | 132.81886 | 15052 ft | 358 kts | 226° |
| 2026-04-18 05:33 | 43.73941 | 132.79590 | 14871 ft | 357 kts | 225° |
| 2026-04-18 05:33 | 43.72051 | 132.77344 | 14667 ft | 356 kts | 224° |
| 2026-04-18 05:33 | 43.69556 | 132.74442 | 14358 ft | 343 kts | 224° |
| 2026-04-18 05:33 | 43.67779 | 132.72397 | 14339 ft | 327 kts | 224° |
| 2026-04-18 05:34 | 43.66635 | 132.71081 | 14320 ft | 317 kts | 224° |
| 2026-04-18 05:34 | 43.65115 | 132.68918 | 14004 ft | 308 kts | 236° |
| 2026-04-18 05:34 | 43.63829 | 132.66608 | 13632 ft | 307 kts | 235° |
| 2026-04-18 05:34 | 43.62483 | 132.64331 | 13245 ft | 306 kts | 234° |
| 2026-04-18 05:35 | 43.61124 | 132.62089 | 12856 ft | 304 kts | 233° |
| 2026-04-18 05:35 | 43.59747 | 132.59845 | 12470 ft | 303 kts | 233° |
| 2026-04-18 05:35 | 43.58393 | 132.57655 | 12092 ft | 302 kts | 233° |
| 2026-04-18 05:35 | 43.57040 | 132.55473 | 11717 ft | 301 kts | 233° |
| 2026-04-18 05:36 | 43.55667 | 132.53265 | 11339 ft | 300 kts | 233° |
| 2026-04-18 05:36 | 43.53862 | 132.50366 | 10836 ft | 298 kts | 233° |
| 2026-04-18 05:36 | 43.52518 | 132.48210 | 10488 ft | 296 kts | 233° |
| 2026-04-18 05:36 | 43.51627 | 132.46783 | 10237 ft | 296 kts | 233° |
| 2026-04-18 05:37 | 43.50299 | 132.44655 | 9915 ft | 293 kts | 233° |
| 2026-04-18 05:37 | 43.48540 | 132.41840 | 9573 ft | 287 kts | 233° |
| 2026-04-18 05:37 | 43.47243 | 132.39767 | 9316 ft | 283 kts | 233° |
| 2026-04-18 05:37 | 43.45973 | 132.37736 | 9063 ft | 279 kts | 233° |
| 2026-04-18 05:38 | 43.45132 | 132.36392 | 8891 ft | 276 kts | 234° |
| 2026-04-18 05:38 | 43.43864 | 132.34370 | 8635 ft | 273 kts | 233° |
| 2026-04-18 05:38 | 43.42638 | 132.32413 | 8386 ft | 270 kts | 233° |
| 2026-04-18 05:38 | 43.41420 | 132.30472 | 8134 ft | 267 kts | 233° |
| 2026-04-18 05:39 | 43.40208 | 132.28540 | 7880 ft | 264 kts | 233° |
| 2026-04-18 05:39 | 43.39022 | 132.26653 | 7635 ft | 261 kts | 233° |
| 2026-04-18 05:39 | 43.37452 | 132.24156 | 7368 ft | 255 kts | 233° |
| 2026-04-18 05:39 | 43.36303 | 132.22333 | 7215 ft | 249 kts | 234° |
| 2026-04-18 05:40 | 43.35562 | 132.21156 | 7129 ft | 245 kts | 234° |
| 2026-04-18 05:40 | 43.34451 | 132.19388 | 7001 ft | 244 kts | 233° |
| 2026-04-18 05:40 | 43.33336 | 132.17618 | 6868 ft | 242 kts | 234° |
| 2026-04-18 05:40 | 43.32245 | 132.15886 | 6747 ft | 242 kts | 234° |
| 2026-04-18 05:41 | 43.31142 | 132.14137 | 6619 ft | 241 kts | 234° |
| 2026-04-18 05:41 | 43.30045 | 132.12398 | 6495 ft | 243 kts | 233° |
| 2026-04-18 05:41 | 43.28951 | 132.10667 | 6375 ft | 239 kts | 234° |
| 2026-04-18 05:41 | 43.27849 | 132.08925 | 6248 ft | 239 kts | 234° |
| 2026-04-18 05:42 | 43.26395 | 132.06624 | 6087 ft | 241 kts | 234° |
| 2026-04-18 05:42 | 43.25285 | 132.04871 | 5996 ft | 240 kts | 234° |
| 2026-04-18 05:42 | 43.24565 | 132.03734 | 5997 ft | 240 kts | 234° |
| 2026-04-18 05:42 | 43.23582 | 132.01888 | 5994 ft | 230 kts | 252° |
| 2026-04-18 05:43 | 43.23516 | 131.99249 | 5999 ft | 200 kts | 299° |
| 2026-04-18 05:43 | 43.24032 | 131.98227 | 6036 ft | 196 kts | 316° |
| 2026-04-18 05:43 | 43.25471 | 131.96703 | 5942 ft | 194 kts | 326° |
| 2026-04-18 05:43 | 43.26647 | 131.95725 | 5450 ft | 197 kts | 330° |
| 2026-04-18 05:44 | 43.27440 | 131.95134 | 5111 ft | 198 kts | 331° |
| 2026-04-18 05:44 | 43.28671 | 131.94289 | 4699 ft | 196 kts | 334° |
| 2026-04-18 05:44 | 43.29987 | 131.93977 | 4289 ft | 196 kts | 6° |
| 2026-04-18 05:44 | 43.31174 | 131.94678 | 3952 ft | 182 kts | 30° |
| 2026-04-18 05:45 | 43.32185 | 131.96498 | 3271 ft | 178 kts | 54° |
| 2026-04-18 05:45 | 43.32782 | 131.97954 | 2755 ft | 174 kts | 52° |
| 2026-04-18 05:45 | 43.33173 | 131.98901 | 2497 ft | 168 kts | 53° |
| 2026-04-18 05:45 | 43.33908 | 132.00693 | 2195 ft | 155 kts | 53° |
| 2026-04-18 05:46 | 43.34432 | 132.01975 | 1974 ft | 156 kts | 53° |
| 2026-04-18 05:46 | 43.34790 | 132.02849 | 1829 ft | 154 kts | 51° |
| 2026-04-18 05:46 | 43.35315 | 132.04132 | 1593 ft | 157 kts | 53° |
| 2026-04-18 05:46 | 43.35838 | 132.05421 | 1391 ft | 155 kts | 53° |
| 2026-04-18 05:47 | 43.36355 | 132.06696 | 1151 ft | 151 kts | 53° |
| 2026-04-18 05:47 | 43.36864 | 132.07947 | 924 ft | 151 kts | 52° |
| 2026-04-18 05:47 | 43.37550 | 132.09648 | 633 ft | 151 kts | 54° |
| 2026-04-18 05:47 | 43.37888 | 132.10483 | 497 ft | 150 kts | 51° |
| 2026-04-18 05:48 | 43.38393 | 132.11728 | 303 ft | 148 kts | 53° |
| 2026-04-18 05:48 | 43.38889 | 132.12976 | 116 ft | 148 kts | 55° |
| 2026-04-18 05:48 | 43.39523 | 132.14500 | 56 ft | 117 kts | 60° |
| 2026-04-18 05:48 | 43.39743 | 132.15082 | 56 ft | 89 kts | 60° |
| 2026-04-18 05:49 | 43.39993 | 132.15701 | 55 ft | 51 kts | 59° |
| 2026-04-18 05:49 | 43.40158 | 132.16112 | 55 ft | 47 kts | 59° |
| 2026-04-18 05:49 | 43.40314 | 132.16501 | 55 ft | 45 kts | 58° |
| 2026-04-18 05:49 | 43.40436 | 132.16798 | 55 ft | 16 kts | 82° |
| 2026-04-18 05:50 | 43.40401 | 132.16870 | 55 ft | 13 kts | 149° |
| 2026-04-18 05:50 | 43.40322 | 132.16931 | 55 ft | 12 kts | 150° |
| 2026-04-18 05:50 | 43.40252 | 132.16986 | 55 ft | 10 kts | 151° |
| 2026-04-18 05:50 | 43.40193 | 132.17032 | 55 ft | 9 kts | 151° |
| 2026-04-18 05:51 | 43.40142 | 132.17070 | 55 ft | 7 kts | 152° |
| 2026-04-18 05:51 | 43.40088 | 132.17093 | 55 ft | 4 kts | 198° |
| 2026-04-18 05:51 | 43.40066 | 132.17064 | 55 ft | 4 kts | 239° |
| 2026-04-18 05:51 | 43.40057 | 132.17041 | 55 ft | 4 kts | 239° |
| 2026-04-18 05:52 | 43.40041 | 132.17001 | 55 ft | 5 kts | 240° |
| 2026-04-18 05:52 | 43.40020 | 132.16951 | 55 ft | 6 kts | 241° |
| 2026-04-18 05:52 | 43.39994 | 132.16911 | 55 ft | 4 kts | 190° |
| 2026-04-18 05:52 | 43.39972 | 132.16921 | 55 ft | 3 kts | 153° |
| 2026-04-18 05:53 | 43.39945 | 132.16942 | 55 ft | 5 kts | 150° |
| 2026-04-18 05:53 | 43.39927 | 132.16956 | 55 ft | 0 kts | 150° |